sensor_id;sensor_type;location;lat;lon;timestamp;P1;durP1;ratioP1;P2;durP2;ratioP2
11100;SDS011;5604;50.722;7.078;2023-04-01T00:01:43;1.23;;;0.93;;
11100;SDS011;5604;50.722;7.078;2023-04-01T00:04:14;2.43;;;0.80;;
11100;SDS011;5604;50.722;7.078;2023-04-01T00:06:44;0.70;;;0.70;;
11100;SDS011;5604;50.722;7.078;2023-04-01T00:09:13;2.43;;;1.07;;
11100;SDS011;5604;50.722;7.078;2023-04-01T00:11:43;2.10;;;0.80;;
11100;SDS011;5604;50.722;7.078;2023-04-01T00:14:16;1.07;;;0.70;;
11100;SDS011;5604;50.722;7.078;2023-04-01T00:16:44;1.60;;;1.00;;
11100;SDS011;5604;50.722;7.078;2023-04-01T00:19:12;1.47;;;0.80;;
11100;SDS011;5604;50.722;7.078;2023-04-01T00:21:40;1.10;;;0.80;;
11100;SDS011;5604;50.722;7.078;2023-04-01T00:24:08;1.57;;;1.00;;
11100;SDS011;5604;50.722;7.078;2023-04-01T00:26:39;1.17;;;0.70;;
11100;SDS011;5604;50.722;7.078;2023-04-01T00:29:10;2.23;;;0.87;;
11100;SDS011;5604;50.722;7.078;2023-04-01T00:31:38;0.97;;;0.70;;
11100;SDS011;5604;50.722;7.078;2023-04-01T00:34:06;1.57;;;0.80;;
11100;SDS011;5604;50.722;7.078;2023-04-01T00:36:36;1.87;;;0.70;;
11100;SDS011;5604;50.722;7.078;2023-04-01T00:39:06;1.63;;;0.77;;
11100;SDS011;5604;50.722;7.078;2023-04-01T00:41:37;1.83;;;0.70;;
11100;SDS011;5604;50.722;7.078;2023-04-01T00:44:17;2.43;;;0.83;;
11100;SDS011;5604;50.722;7.078;2023-04-01T00:46:49;1.53;;;0.60;;
11100;SDS011;5604;50.722;7.078;2023-04-01T00:49:20;2.67;;;0.90;;
11100;SDS011;5604;50.722;7.078;2023-04-01T00:51:53;2.43;;;0.80;;
11100;SDS011;5604;50.722;7.078;2023-04-01T00:54:25;1.80;;;0.83;;
11100;SDS011;5604;50.722;7.078;2023-04-01T00:56:58;1.17;;;0.67;;
11100;SDS011;5604;50.722;7.078;2023-04-01T00:59:29;1.70;;;0.60;;
11100;SDS011;5604;50.722;7.078;2023-04-01T01:01:58;0.77;;;0.60;;
11100;SDS011;5604;50.722;7.078;2023-04-01T01:04:27;0.67;;;0.67;;
11100;SDS011;5604;50.722;7.078;2023-04-01T01:07:02;1.23;;;0.57;;
11100;SDS011;5604;50.722;7.078;2023-04-01T01:09:41;1.43;;;0.80;;
11100;SDS011;5604;50.722;7.078;2023-04-01T01:12:13;1.33;;;0.87;;
11100;SDS011;5604;50.722;7.078;2023-04-01T01:14:54;0.70;;;0.70;;
11100;SDS011;5604;50.722;7.078;2023-04-01T01:17:31;1.27;;;0.60;;
11100;SDS011;5604;50.722;7.078;2023-04-01T01:20:15;0.53;;;0.50;;
11100;SDS011;5604;50.722;7.078;2023-04-01T01:25:53;1.03;;;0.60;;
11100;SDS011;5604;50.722;7.078;2023-04-01T01:28:34;0.60;;;0.60;;
11100;SDS011;5604;50.722;7.078;2023-04-01T01:31:14;1.37;;;0.77;;
11100;SDS011;5604;50.722;7.078;2023-04-01T01:33:52;2.20;;;0.73;;
11100;SDS011;5604;50.722;7.078;2023-04-01T01:36:32;1.43;;;0.77;;
11100;SDS011;5604;50.722;7.078;2023-04-01T01:39:04;3.10;;;0.63;;
11100;SDS011;5604;50.722;7.078;2023-04-01T01:41:34;0.80;;;0.80;;
11100;SDS011;5604;50.722;7.078;2023-04-01T01:44:03;1.07;;;0.60;;
11100;SDS011;5604;50.722;7.078;2023-04-01T01:46:34;0.70;;;0.70;;
11100;SDS011;5604;50.722;7.078;2023-04-01T01:49:04;0.70;;;0.70;;
11100;SDS011;5604;50.722;7.078;2023-04-01T01:51:35;2.27;;;0.70;;
11100;SDS011;5604;50.722;7.078;2023-04-01T01:54:05;1.03;;;0.70;;
11100;SDS011;5604;50.722;7.078;2023-04-01T01:56:36;1.43;;;0.67;;
11100;SDS011;5604;50.722;7.078;2023-04-01T01:59:06;1.30;;;0.90;;
11100;SDS011;5604;50.722;7.078;2023-04-01T02:01:37;0.50;;;0.50;;
11100;SDS011;5604;50.722;7.078;2023-04-01T02:04:10;1.27;;;0.70;;
11100;SDS011;5604;50.722;7.078;2023-04-01T02:06:44;0.60;;;0.60;;
11100;SDS011;5604;50.722;7.078;2023-04-01T02:09:16;0.63;;;0.63;;
11100;SDS011;5604;50.722;7.078;2023-04-01T02:11:45;1.53;;;0.70;;
11100;SDS011;5604;50.722;7.078;2023-04-01T02:14:19;0.60;;;0.60;;
11100;SDS011;5604;50.722;7.078;2023-04-01T02:16:49;0.63;;;0.40;;
11100;SDS011;5604;50.722;7.078;2023-04-01T02:19:20;1.37;;;0.60;;
11100;SDS011;5604;50.722;7.078;2023-04-01T02:21:53;1.60;;;0.80;;
11100;SDS011;5604;50.722;7.078;2023-04-01T02:24:23;1.77;;;0.60;;
11100;SDS011;5604;50.722;7.078;2023-04-01T02:26:55;0.80;;;0.57;;
11100;SDS011;5604;50.722;7.078;2023-04-01T02:29:29;1.03;;;0.60;;
11100;SDS011;5604;50.722;7.078;2023-04-01T02:31:57;0.70;;;0.70;;
11100;SDS011;5604;50.722;7.078;2023-04-01T02:34:26;1.20;;;0.60;;
11100;SDS011;5604;50.722;7.078;2023-04-01T02:36:55;0.70;;;0.70;;
11100;SDS011;5604;50.722;7.078;2023-04-01T02:39:24;1.20;;;0.80;;
11100;SDS011;5604;50.722;7.078;2023-04-01T02:41:53;0.70;;;0.63;;
11100;SDS011;5604;50.722;7.078;2023-04-01T02:44:23;1.77;;;0.60;;
11100;SDS011;5604;50.722;7.078;2023-04-01T02:46:54;1.03;;;0.73;;
11100;SDS011;5604;50.722;7.078;2023-04-01T02:49:25;2.00;;;0.80;;
11100;SDS011;5604;50.722;7.078;2023-04-01T02:51:53;1.37;;;0.83;;
11100;SDS011;5604;50.722;7.078;2023-04-01T02:54:23;1.23;;;0.77;;
11100;SDS011;5604;50.722;7.078;2023-04-01T02:56:51;1.67;;;0.80;;
11100;SDS011;5604;50.722;7.078;2023-04-01T02:59:19;0.77;;;0.70;;
11100;SDS011;5604;50.722;7.078;2023-04-01T03:01:50;0.50;;;0.50;;
11100;SDS011;5604;50.722;7.078;2023-04-01T03:04:21;2.30;;;0.90;;
11100;SDS011;5604;50.722;7.078;2023-04-01T03:06:52;1.50;;;0.80;;
11100;SDS011;5604;50.722;7.078;2023-04-01T03:09:24;0.73;;;0.50;;
11100;SDS011;5604;50.722;7.078;2023-04-01T03:11:54;2.23;;;0.50;;
11100;SDS011;5604;50.722;7.078;2023-04-01T03:14:22;0.57;;;0.57;;
11100;SDS011;5604;50.722;7.078;2023-04-01T03:16:51;1.00;;;0.90;;
11100;SDS011;5604;50.722;7.078;2023-04-01T03:19:19;1.73;;;0.60;;
11100;SDS011;5604;50.722;7.078;2023-04-01T03:21:47;0.60;;;0.60;;
11100;SDS011;5604;50.722;7.078;2023-04-01T03:24:15;1.03;;;0.70;;
11100;SDS011;5604;50.722;7.078;2023-04-01T03:26:45;0.57;;;0.57;;
11100;SDS011;5604;50.722;7.078;2023-04-01T03:29:15;0.80;;;0.60;;
11100;SDS011;5604;50.722;7.078;2023-04-01T03:31:43;0.73;;;0.60;;
11100;SDS011;5604;50.722;7.078;2023-04-01T03:34:13;0.50;;;0.50;;
11100;SDS011;5604;50.722;7.078;2023-04-01T03:36:41;0.70;;;0.70;;
11100;SDS011;5604;50.722;7.078;2023-04-01T03:39:12;0.50;;;0.50;;
11100;SDS011;5604;50.722;7.078;2023-04-01T03:41:40;0.50;;;0.50;;
11100;SDS011;5604;50.722;7.078;2023-04-01T03:44:10;0.60;;;0.50;;
11100;SDS011;5604;50.722;7.078;2023-04-01T03:46:38;0.50;;;0.50;;
11100;SDS011;5604;50.722;7.078;2023-04-01T03:49:07;0.50;;;0.50;;
11100;SDS011;5604;50.722;7.078;2023-04-01T03:51:40;0.43;;;0.43;;
11100;SDS011;5604;50.722;7.078;2023-04-01T03:54:09;0.40;;;0.40;;
11100;SDS011;5604;50.722;7.078;2023-04-01T03:56:38;0.57;;;0.57;;
11100;SDS011;5604;50.722;7.078;2023-04-01T03:59:16;0.43;;;0.43;;
11100;SDS011;5604;50.722;7.078;2023-04-01T04:01:45;0.43;;;0.43;;
11100;SDS011;5604;50.722;7.078;2023-04-01T04:04:14;0.40;;;0.40;;
11100;SDS011;5604;50.722;7.078;2023-04-01T04:06:42;0.50;;;0.50;;
11100;SDS011;5604;50.722;7.078;2023-04-01T04:09:11;0.70;;;0.70;;
11100;SDS011;5604;50.722;7.078;2023-04-01T04:11:42;0.80;;;0.40;;
11100;SDS011;5604;50.722;7.078;2023-04-01T04:14:17;0.50;;;0.50;;
11100;SDS011;5604;50.722;7.078;2023-04-01T04:16:47;0.50;;;0.50;;
11100;SDS011;5604;50.722;7.078;2023-04-01T04:19:18;0.50;;;0.50;;
11100;SDS011;5604;50.722;7.078;2023-04-01T04:21:51;0.57;;;0.50;;
11100;SDS011;5604;50.722;7.078;2023-04-01T04:24:27;0.50;;;0.50;;
11100;SDS011;5604;50.722;7.078;2023-04-01T04:27:05;0.43;;;0.43;;
11100;SDS011;5604;50.722;7.078;2023-04-01T04:29:37;0.37;;;0.37;;
11100;SDS011;5604;50.722;7.078;2023-04-01T04:32:09;0.60;;;0.60;;
11100;SDS011;5604;50.722;7.078;2023-04-01T04:34:38;0.73;;;0.40;;
11100;SDS011;5604;50.722;7.078;2023-04-01T04:37:08;0.30;;;0.30;;
11100;SDS011;5604;50.722;7.078;2023-04-01T04:39:38;0.97;;;0.50;;
11100;SDS011;5604;50.722;7.078;2023-04-01T04:42:07;0.67;;;0.60;;
11100;SDS011;5604;50.722;7.078;2023-04-01T04:44:39;0.30;;;0.30;;
11100;SDS011;5604;50.722;7.078;2023-04-01T04:47:09;0.40;;;0.40;;
11100;SDS011;5604;50.722;7.078;2023-04-01T04:49:41;0.50;;;0.50;;
11100;SDS011;5604;50.722;7.078;2023-04-01T04:52:09;0.73;;;0.30;;
11100;SDS011;5604;50.722;7.078;2023-04-01T04:54:37;0.90;;;0.60;;
11100;SDS011;5604;50.722;7.078;2023-04-01T04:57:06;0.50;;;0.50;;
11100;SDS011;5604;50.722;7.078;2023-04-01T04:59:45;0.80;;;0.50;;
11100;SDS011;5604;50.722;7.078;2023-04-01T05:02:24;0.53;;;0.50;;
11100;SDS011;5604;50.722;7.078;2023-04-01T05:04:52;0.40;;;0.40;;
11100;SDS011;5604;50.722;7.078;2023-04-01T05:07:24;1.17;;;0.57;;
11100;SDS011;5604;50.722;7.078;2023-04-01T05:09:52;0.50;;;0.50;;
11100;SDS011;5604;50.722;7.078;2023-04-01T05:12:21;0.37;;;0.37;;
11100;SDS011;5604;50.722;7.078;2023-04-01T05:15:00;0.40;;;0.40;;
11100;SDS011;5604;50.722;7.078;2023-04-01T05:17:29;0.40;;;0.40;;
11100;SDS011;5604;50.722;7.078;2023-04-01T05:20:03;1.53;;;0.60;;
11100;SDS011;5604;50.722;7.078;2023-04-01T05:22:35;0.43;;;0.43;;
11100;SDS011;5604;50.722;7.078;2023-04-01T05:25:03;0.87;;;0.60;;
11100;SDS011;5604;50.722;7.078;2023-04-01T05:27:32;0.40;;;0.40;;
11100;SDS011;5604;50.722;7.078;2023-04-01T05:30:05;0.40;;;0.40;;
11100;SDS011;5604;50.722;7.078;2023-04-01T05:32:59;0.50;;;0.50;;
11100;SDS011;5604;50.722;7.078;2023-04-01T05:35:30;0.50;;;0.50;;
11100;SDS011;5604;50.722;7.078;2023-04-01T05:38:10;1.10;;;0.50;;
11100;SDS011;5604;50.722;7.078;2023-04-01T05:40:44;1.00;;;0.50;;
11100;SDS011;5604;50.722;7.078;2023-04-01T05:43:14;0.47;;;0.47;;
11100;SDS011;5604;50.722;7.078;2023-04-01T05:45:46;0.63;;;0.40;;
11100;SDS011;5604;50.722;7.078;2023-04-01T05:48:35;0.47;;;0.47;;
11100;SDS011;5604;50.722;7.078;2023-04-01T05:51:03;0.63;;;0.63;;
11100;SDS011;5604;50.722;7.078;2023-04-01T05:53:40;1.60;;;0.50;;
11100;SDS011;5604;50.722;7.078;2023-04-01T05:56:09;0.40;;;0.40;;
11100;SDS011;5604;50.722;7.078;2023-04-01T05:58:51;0.67;;;0.57;;
11100;SDS011;5604;50.722;7.078;2023-04-01T06:01:27;0.50;;;0.50;;
11100;SDS011;5604;50.722;7.078;2023-04-01T06:03:55;0.50;;;0.50;;
11100;SDS011;5604;50.722;7.078;2023-04-01T06:06:25;0.50;;;0.50;;
11100;SDS011;5604;50.722;7.078;2023-04-01T06:09:07;0.40;;;0.40;;
11100;SDS011;5604;50.722;7.078;2023-04-01T06:11:52;0.50;;;0.50;;
11100;SDS011;5604;50.722;7.078;2023-04-01T06:14:38;0.40;;;0.40;;
11100;SDS011;5604;50.722;7.078;2023-04-01T06:17:18;0.53;;;0.53;;
11100;SDS011;5604;50.722;7.078;2023-04-01T06:20:00;1.07;;;0.50;;
11100;SDS011;5604;50.722;7.078;2023-04-01T06:31:26;0.50;;;0.50;;
11100;SDS011;5604;50.722;7.078;2023-04-01T06:34:13;1.20;;;0.40;;
11100;SDS011;5604;50.722;7.078;2023-04-01T06:37:11;0.60;;;0.57;;
11100;SDS011;5604;50.722;7.078;2023-04-01T06:39:57;0.40;;;0.40;;
11100;SDS011;5604;50.722;7.078;2023-04-01T06:42:59;1.37;;;0.60;;
11100;SDS011;5604;50.722;7.078;2023-04-01T06:45:53;0.43;;;0.43;;
11100;SDS011;5604;50.722;7.078;2023-04-01T06:48:51;1.13;;;0.60;;
11100;SDS011;5604;50.722;7.078;2023-04-01T06:51:50;0.57;;;0.57;;
11100;SDS011;5604;50.722;7.078;2023-04-01T06:54:42;0.50;;;0.50;;
11100;SDS011;5604;50.722;7.078;2023-04-01T06:57:48;0.50;;;0.50;;
11100;SDS011;5604;50.722;7.078;2023-04-01T07:00:19;0.40;;;0.40;;
11100;SDS011;5604;50.722;7.078;2023-04-01T07:02:55;0.80;;;0.70;;
11100;SDS011;5604;50.722;7.078;2023-04-01T07:05:33;0.93;;;0.60;;
11100;SDS011;5604;50.722;7.078;2023-04-01T07:08:05;1.83;;;0.70;;
11100;SDS011;5604;50.722;7.078;2023-04-01T07:10:42;0.53;;;0.53;;
11100;SDS011;5604;50.722;7.078;2023-04-01T07:13:15;1.57;;;0.63;;
11100;SDS011;5604;50.722;7.078;2023-04-01T07:15:58;0.60;;;0.60;;
11100;SDS011;5604;50.722;7.078;2023-04-01T07:18:37;0.50;;;0.50;;
11100;SDS011;5604;50.722;7.078;2023-04-01T07:21:24;0.87;;;0.80;;
11100;SDS011;5604;50.722;7.078;2023-04-01T07:24:01;0.53;;;0.53;;
11100;SDS011;5604;50.722;7.078;2023-04-01T07:26:38;0.60;;;0.60;;
11100;SDS011;5604;50.722;7.078;2023-04-01T07:29:09;0.57;;;0.50;;
11100;SDS011;5604;50.722;7.078;2023-04-01T07:35:07;0.70;;;0.70;;
11100;SDS011;5604;50.722;7.078;2023-04-01T07:37:53;1.30;;;0.50;;
11100;SDS011;5604;50.722;7.078;2023-04-01T07:40:41;0.67;;;0.60;;
11100;SDS011;5604;50.722;7.078;2023-04-01T07:43:22;0.57;;;0.57;;
11100;SDS011;5604;50.722;7.078;2023-04-01T07:46:21;1.40;;;0.97;;
11100;SDS011;5604;50.722;7.078;2023-04-01T07:48:58;0.63;;;0.50;;
11100;SDS011;5604;50.722;7.078;2023-04-01T07:51:40;0.50;;;0.50;;
11100;SDS011;5604;50.722;7.078;2023-04-01T07:54:19;0.60;;;0.60;;
11100;SDS011;5604;50.722;7.078;2023-04-01T07:56:54;1.13;;;0.73;;
11100;SDS011;5604;50.722;7.078;2023-04-01T07:59:43;0.70;;;0.63;;
11100;SDS011;5604;50.722;7.078;2023-04-01T08:02:29;0.70;;;0.70;;
11100;SDS011;5604;50.722;7.078;2023-04-01T08:05:14;0.60;;;0.60;;
11100;SDS011;5604;50.722;7.078;2023-04-01T08:07:51;0.47;;;0.47;;
11100;SDS011;5604;50.722;7.078;2023-04-01T08:10:44;1.50;;;0.60;;
11100;SDS011;5604;50.722;7.078;2023-04-01T08:13:50;0.63;;;0.63;;
11100;SDS011;5604;50.722;7.078;2023-04-01T08:16:54;1.73;;;0.73;;
11100;SDS011;5604;50.722;7.078;2023-04-01T08:19:36;0.70;;;0.60;;
11100;SDS011;5604;50.722;7.078;2023-04-01T08:22:21;2.00;;;0.90;;
11100;SDS011;5604;50.722;7.078;2023-04-01T08:24:51;0.73;;;0.73;;
11100;SDS011;5604;50.722;7.078;2023-04-01T08:27:26;0.50;;;0.50;;
11100;SDS011;5604;50.722;7.078;2023-04-01T08:30:14;1.23;;;0.50;;
11100;SDS011;5604;50.722;7.078;2023-04-01T08:32:45;0.43;;;0.43;;
11100;SDS011;5604;50.722;7.078;2023-04-01T08:35:17;0.50;;;0.50;;
11100;SDS011;5604;50.722;7.078;2023-04-01T08:37:55;0.43;;;0.40;;
11100;SDS011;5604;50.722;7.078;2023-04-01T08:40:39;0.70;;;0.70;;
11100;SDS011;5604;50.722;7.078;2023-04-01T08:43:19;0.70;;;0.70;;
11100;SDS011;5604;50.722;7.078;2023-04-01T08:45:59;0.73;;;0.73;;
11100;SDS011;5604;50.722;7.078;2023-04-01T08:48:53;0.80;;;0.80;;
11100;SDS011;5604;50.722;7.078;2023-04-01T08:51:52;0.77;;;0.77;;
11100;SDS011;5604;50.722;7.078;2023-04-01T08:57:59;0.80;;;0.80;;
11100;SDS011;5604;50.722;7.078;2023-04-01T09:01:17;1.00;;;0.97;;
11100;SDS011;5604;50.722;7.078;2023-04-01T09:06:55;2.93;;;1.77;;
11100;SDS011;5604;50.722;7.078;2023-04-01T09:09:51;1.30;;;1.20;;
11100;SDS011;5604;50.722;7.078;2023-04-01T09:15:27;1.20;;;0.97;;
11100;SDS011;5604;50.722;7.078;2023-04-01T09:18:25;0.73;;;0.73;;
11100;SDS011;5604;50.722;7.078;2023-04-01T09:21:04;0.97;;;0.97;;
11100;SDS011;5604;50.722;7.078;2023-04-01T09:27:10;0.70;;;0.70;;
11100;SDS011;5604;50.722;7.078;2023-04-01T09:30:03;1.43;;;0.80;;
11100;SDS011;5604;50.722;7.078;2023-04-01T09:36:33;0.73;;;0.70;;
11100;SDS011;5604;50.722;7.078;2023-04-01T09:39:13;0.70;;;0.70;;
11100;SDS011;5604;50.722;7.078;2023-04-01T09:41:57;0.87;;;0.87;;
11100;SDS011;5604;50.722;7.078;2023-04-01T09:44:40;1.17;;;1.00;;
11100;SDS011;5604;50.722;7.078;2023-04-01T09:47:16;0.67;;;0.67;;
11100;SDS011;5604;50.722;7.078;2023-04-01T09:50:12;0.80;;;0.80;;
11100;SDS011;5604;50.722;7.078;2023-04-01T09:52:46;0.50;;;0.50;;
11100;SDS011;5604;50.722;7.078;2023-04-01T09:58:39;0.60;;;0.60;;
11100;SDS011;5604;50.722;7.078;2023-04-01T10:01:57;0.63;;;0.63;;
11100;SDS011;5604;50.722;7.078;2023-04-01T10:11:01;1.23;;;0.67;;
11100;SDS011;5604;50.722;7.078;2023-04-01T10:14:24;1.67;;;0.70;;
11100;SDS011;5604;50.722;7.078;2023-04-01T10:17:27;0.60;;;0.60;;
11100;SDS011;5604;50.722;7.078;2023-04-01T10:20:21;1.00;;;0.90;;
11100;SDS011;5604;50.722;7.078;2023-04-01T10:26:23;0.70;;;0.70;;
11100;SDS011;5604;50.722;7.078;2023-04-01T10:32:32;0.70;;;0.70;;
11100;SDS011;5604;50.722;7.078;2023-04-01T10:35:36;0.63;;;0.63;;
11100;SDS011;5604;50.722;7.078;2023-04-01T10:38:32;0.73;;;0.73;;
11100;SDS011;5604;50.722;7.078;2023-04-01T10:41:28;0.50;;;0.50;;
11100;SDS011;5604;50.722;7.078;2023-04-01T10:44:44;1.03;;;0.87;;
11100;SDS011;5604;50.722;7.078;2023-04-01T10:47:48;1.53;;;0.70;;
11100;SDS011;5604;50.722;7.078;2023-04-01T10:53:37;0.60;;;0.50;;
11100;SDS011;5604;50.722;7.078;2023-04-01T11:24:57;0.80;;;0.80;;
11100;SDS011;5604;50.722;7.078;2023-04-01T11:27:53;1.00;;;0.90;;
11100;SDS011;5604;50.722;7.078;2023-04-01T11:30:49;0.70;;;0.70;;
11100;SDS011;5604;50.722;7.078;2023-04-01T11:33:28;0.80;;;0.80;;
11100;SDS011;5604;50.722;7.078;2023-04-01T11:36:07;1.17;;;0.90;;
11100;SDS011;5604;50.722;7.078;2023-04-01T11:38:53;0.70;;;0.70;;
11100;SDS011;5604;50.722;7.078;2023-04-01T11:42:17;0.80;;;0.80;;
11100;SDS011;5604;50.722;7.078;2023-04-01T11:45:15;0.90;;;0.90;;
11100;SDS011;5604;50.722;7.078;2023-04-01T11:47:52;0.83;;;0.80;;
11100;SDS011;5604;50.722;7.078;2023-04-01T11:50:29;0.73;;;0.73;;
11100;SDS011;5604;50.722;7.078;2023-04-01T11:53:16;0.70;;;0.70;;
11100;SDS011;5604;50.722;7.078;2023-04-01T11:55:57;1.03;;;0.93;;
11100;SDS011;5604;50.722;7.078;2023-04-01T12:01:46;0.93;;;0.60;;
11100;SDS011;5604;50.722;7.078;2023-04-01T12:07:23;0.70;;;0.70;;
11100;SDS011;5604;50.722;7.078;2023-04-01T12:10:02;0.63;;;0.63;;
11100;SDS011;5604;50.722;7.078;2023-04-01T12:12:38;0.70;;;0.70;;
11100;SDS011;5604;50.722;7.078;2023-04-01T12:15:28;0.90;;;0.90;;
11100;SDS011;5604;50.722;7.078;2023-04-01T12:18:02;1.13;;;0.60;;
11100;SDS011;5604;50.722;7.078;2023-04-01T12:20:36;0.70;;;0.70;;
11100;SDS011;5604;50.722;7.078;2023-04-01T12:23:13;0.90;;;0.90;;
11100;SDS011;5604;50.722;7.078;2023-04-01T12:26:00;0.80;;;0.77;;
11100;SDS011;5604;50.722;7.078;2023-04-01T12:28:58;1.10;;;1.00;;
11100;SDS011;5604;50.722;7.078;2023-04-01T12:31:42;1.00;;;1.00;;
11100;SDS011;5604;50.722;7.078;2023-04-01T12:34:30;0.70;;;0.70;;
11100;SDS011;5604;50.722;7.078;2023-04-01T12:37:11;1.10;;;1.00;;
11100;SDS011;5604;50.722;7.078;2023-04-01T12:39:47;0.80;;;0.80;;
11100;SDS011;5604;50.722;7.078;2023-04-01T12:42:28;1.00;;;1.00;;
11100;SDS011;5604;50.722;7.078;2023-04-01T12:45:08;1.37;;;1.10;;
11100;SDS011;5604;50.722;7.078;2023-04-01T12:54:06;0.77;;;0.77;;
11100;SDS011;5604;50.722;7.078;2023-04-01T12:56:49;0.93;;;0.80;;
11100;SDS011;5604;50.722;7.078;2023-04-01T12:59:27;0.70;;;0.70;;
11100;SDS011;5604;50.722;7.078;2023-04-01T13:02:11;0.60;;;0.60;;
11100;SDS011;5604;50.722;7.078;2023-04-01T13:04:50;0.93;;;0.93;;
11100;SDS011;5604;50.722;7.078;2023-04-01T13:07:26;1.60;;;1.50;;
11100;SDS011;5604;50.722;7.078;2023-04-01T13:10:12;1.33;;;1.30;;
11100;SDS011;5604;50.722;7.078;2023-04-01T13:12:54;1.93;;;1.20;;
11100;SDS011;5604;50.722;7.078;2023-04-01T13:15:33;1.07;;;1.07;;
11100;SDS011;5604;50.722;7.078;2023-04-01T13:18:07;1.30;;;1.20;;
11100;SDS011;5604;50.722;7.078;2023-04-01T13:20:44;2.40;;;1.47;;
11100;SDS011;5604;50.722;7.078;2023-04-01T13:23:28;1.20;;;1.10;;
11100;SDS011;5604;50.722;7.078;2023-04-01T13:26:03;0.97;;;0.90;;
11100;SDS011;5604;50.722;7.078;2023-04-01T13:28:43;0.87;;;0.87;;
11100;SDS011;5604;50.722;7.078;2023-04-01T13:31:33;1.03;;;1.00;;
11100;SDS011;5604;50.722;7.078;2023-04-01T13:34:15;0.90;;;0.90;;
11100;SDS011;5604;50.722;7.078;2023-04-01T13:36:51;1.43;;;0.90;;
11100;SDS011;5604;50.722;7.078;2023-04-01T13:39:27;0.97;;;0.97;;
11100;SDS011;5604;50.722;7.078;2023-04-01T13:42:05;0.70;;;0.70;;
11100;SDS011;5604;50.722;7.078;2023-04-01T13:44:41;0.73;;;0.73;;
11100;SDS011;5604;50.722;7.078;2023-04-01T13:47:24;0.80;;;0.80;;
11100;SDS011;5604;50.722;7.078;2023-04-01T13:50:16;0.87;;;0.87;;
11100;SDS011;5604;50.722;7.078;2023-04-01T13:56:03;0.67;;;0.67;;
11100;SDS011;5604;50.722;7.078;2023-04-01T13:58:46;0.80;;;0.80;;
11100;SDS011;5604;50.722;7.078;2023-04-01T14:01:26;0.60;;;0.60;;
11100;SDS011;5604;50.722;7.078;2023-04-01T14:04:17;0.80;;;0.70;;
11100;SDS011;5604;50.722;7.078;2023-04-01T14:07:06;0.70;;;0.70;;
11100;SDS011;5604;50.722;7.078;2023-04-01T14:12:35;0.90;;;0.90;;
11100;SDS011;5604;50.722;7.078;2023-04-01T14:15:31;0.70;;;0.70;;
11100;SDS011;5604;50.722;7.078;2023-04-01T14:23:58;0.73;;;0.73;;
11100;SDS011;5604;50.722;7.078;2023-04-01T14:29:33;0.60;;;0.60;;
11100;SDS011;5604;50.722;7.078;2023-04-01T14:32:06;0.50;;;0.50;;
11100;SDS011;5604;50.722;7.078;2023-04-01T14:34:55;0.50;;;0.50;;
11100;SDS011;5604;50.722;7.078;2023-04-01T14:37:55;0.60;;;0.60;;
11100;SDS011;5604;50.722;7.078;2023-04-01T14:40:48;0.60;;;0.60;;
11100;SDS011;5604;50.722;7.078;2023-04-01T14:46:27;1.07;;;0.60;;
11100;SDS011;5604;50.722;7.078;2023-04-01T14:49:15;1.27;;;0.70;;
11100;SDS011;5604;50.722;7.078;2023-04-01T14:51:56;0.77;;;0.77;;
11100;SDS011;5604;50.722;7.078;2023-04-01T14:54:40;1.23;;;0.80;;
11100;SDS011;5604;50.722;7.078;2023-04-01T14:57:13;0.60;;;0.60;;
11100;SDS011;5604;50.722;7.078;2023-04-01T14:59:46;1.13;;;0.63;;
11100;SDS011;5604;50.722;7.078;2023-04-01T15:02:28;0.70;;;0.70;;
11100;SDS011;5604;50.722;7.078;2023-04-01T15:05:38;1.23;;;0.90;;
11100;SDS011;5604;50.722;7.078;2023-04-01T15:08:19;0.80;;;0.70;;
11100;SDS011;5604;50.722;7.078;2023-04-01T15:14:16;0.63;;;0.63;;
11100;SDS011;5604;50.722;7.078;2023-04-01T15:17:01;0.60;;;0.60;;
11100;SDS011;5604;50.722;7.078;2023-04-01T15:19:46;0.70;;;0.70;;
11100;SDS011;5604;50.722;7.078;2023-04-01T15:22:34;0.60;;;0.60;;
11100;SDS011;5604;50.722;7.078;2023-04-01T15:25:23;0.50;;;0.50;;
11100;SDS011;5604;50.722;7.078;2023-04-01T15:28:17;1.00;;;0.90;;
11100;SDS011;5604;50.722;7.078;2023-04-01T15:30:56;0.67;;;0.67;;
11100;SDS011;5604;50.722;7.078;2023-04-01T15:33:40;0.67;;;0.67;;
11100;SDS011;5604;50.722;7.078;2023-04-01T15:36:17;0.80;;;0.77;;
11100;SDS011;5604;50.722;7.078;2023-04-01T15:38:53;0.70;;;0.70;;
11100;SDS011;5604;50.722;7.078;2023-04-01T15:41:34;1.00;;;1.00;;
11100;SDS011;5604;50.722;7.078;2023-04-01T15:44:27;1.30;;;1.00;;
11100;SDS011;5604;50.722;7.078;2023-04-01T15:47:16;1.93;;;1.83;;
11100;SDS011;5604;50.722;7.078;2023-04-01T15:50:22;1.20;;;1.10;;
11100;SDS011;5604;50.722;7.078;2023-04-01T15:53:11;0.63;;;0.63;;
11100;SDS011;5604;50.722;7.078;2023-04-01T15:55:53;0.70;;;0.70;;
11100;SDS011;5604;50.722;7.078;2023-04-01T15:58:33;0.50;;;0.50;;
11100;SDS011;5604;50.722;7.078;2023-04-01T16:01:09;0.63;;;0.63;;
11100;SDS011;5604;50.722;7.078;2023-04-01T16:03:51;0.77;;;0.70;;
11100;SDS011;5604;50.722;7.078;2023-04-01T16:09:34;0.80;;;0.80;;
11100;SDS011;5604;50.722;7.078;2023-04-01T16:12:24;1.03;;;1.03;;
11100;SDS011;5604;50.722;7.078;2023-04-01T16:15:06;1.20;;;1.10;;
11100;SDS011;5604;50.722;7.078;2023-04-01T16:17:49;1.10;;;1.10;;
11100;SDS011;5604;50.722;7.078;2023-04-01T16:20:34;2.20;;;1.37;;
11100;SDS011;5604;50.722;7.078;2023-04-01T16:23:13;1.37;;;1.27;;
11100;SDS011;5604;50.722;7.078;2023-04-01T16:25:51;0.90;;;0.90;;
11100;SDS011;5604;50.722;7.078;2023-04-01T16:28:25;0.90;;;0.90;;
11100;SDS011;5604;50.722;7.078;2023-04-01T16:31:03;0.90;;;0.90;;
11100;SDS011;5604;50.722;7.078;2023-04-01T16:33:38;0.80;;;0.80;;
11100;SDS011;5604;50.722;7.078;2023-04-01T16:36:13;0.80;;;0.80;;
11100;SDS011;5604;50.722;7.078;2023-04-01T16:38:55;1.03;;;1.03;;
11100;SDS011;5604;50.722;7.078;2023-04-01T16:41:35;1.00;;;1.00;;
11100;SDS011;5604;50.722;7.078;2023-04-01T16:44:10;1.00;;;1.00;;
11100;SDS011;5604;50.722;7.078;2023-04-01T16:46:43;1.00;;;1.00;;
11100;SDS011;5604;50.722;7.078;2023-04-01T16:49:32;0.70;;;0.70;;
11100;SDS011;5604;50.722;7.078;2023-04-01T16:52:13;0.80;;;0.80;;
11100;SDS011;5604;50.722;7.078;2023-04-01T16:54:43;0.80;;;0.80;;
11100;SDS011;5604;50.722;7.078;2023-04-01T16:57:18;0.77;;;0.77;;
11100;SDS011;5604;50.722;7.078;2023-04-01T16:59:51;1.20;;;1.13;;
11100;SDS011;5604;50.722;7.078;2023-04-01T17:02:30;1.10;;;1.00;;
11100;SDS011;5604;50.722;7.078;2023-04-01T17:05:08;1.00;;;1.00;;
11100;SDS011;5604;50.722;7.078;2023-04-01T17:07:47;2.00;;;1.80;;
11100;SDS011;5604;50.722;7.078;2023-04-01T17:10:25;1.20;;;1.10;;
11100;SDS011;5604;50.722;7.078;2023-04-01T17:13:06;1.20;;;1.10;;
11100;SDS011;5604;50.722;7.078;2023-04-01T17:15:51;0.90;;;0.90;;
11100;SDS011;5604;50.722;7.078;2023-04-01T17:18:31;1.00;;;1.00;;
11100;SDS011;5604;50.722;7.078;2023-04-01T17:21:06;1.30;;;1.20;;
11100;SDS011;5604;50.722;7.078;2023-04-01T17:23:38;0.80;;;0.80;;
11100;SDS011;5604;50.722;7.078;2023-04-01T17:26:24;1.00;;;1.00;;
11100;SDS011;5604;50.722;7.078;2023-04-01T17:28:58;0.87;;;0.87;;
11100;SDS011;5604;50.722;7.078;2023-04-01T17:31:36;1.10;;;1.10;;
11100;SDS011;5604;50.722;7.078;2023-04-01T17:34:22;1.30;;;1.20;;
11100;SDS011;5604;50.722;7.078;2023-04-01T17:36:58;1.10;;;1.10;;
11100;SDS011;5604;50.722;7.078;2023-04-01T17:39:39;1.10;;;1.07;;
11100;SDS011;5604;50.722;7.078;2023-04-01T17:42:20;1.00;;;1.00;;
11100;SDS011;5604;50.722;7.078;2023-04-01T17:44:57;0.97;;;0.97;;
11100;SDS011;5604;50.722;7.078;2023-04-01T17:47:39;1.10;;;1.10;;
11100;SDS011;5604;50.722;7.078;2023-04-01T17:50:23;1.90;;;1.40;;
11100;SDS011;5604;50.722;7.078;2023-04-01T17:52:56;1.40;;;1.30;;
11100;SDS011;5604;50.722;7.078;2023-04-01T17:55:39;1.43;;;1.37;;
11100;SDS011;5604;50.722;7.078;2023-04-01T17:58:28;3.27;;;2.40;;
11100;SDS011;5604;50.722;7.078;2023-04-01T18:03:54;1.57;;;1.03;;
11100;SDS011;5604;50.722;7.078;2023-04-01T18:06:31;1.33;;;1.23;;
11100;SDS011;5604;50.722;7.078;2023-04-01T18:09:06;1.40;;;1.30;;
11100;SDS011;5604;50.722;7.078;2023-04-01T18:11:44;1.53;;;1.43;;